This is the latest recevied weather packets stored in our database for station/object WX5RP. If no packets are shown the sender has not sent any weather packets the latest 10 day(s).
| Time | Temp. | Humidity | Pressure | Rain* | Wind** | Luminosity | Snow |
|---|---|---|---|---|---|---|---|
| 1778088317 | 20° C | 40% | 1022.1 hPa | 0 mm | - | 804 W/m² | - |
| 1778087716 | 19.44° C | 39% | 1021.8 hPa | 0 mm | - | 781 W/m² | - |
| 1778087115 | 18.89° C | 40% | 1020.6 hPa | 0 mm | - | 755 W/m² | - |
| 1778086516 | 18.89° C | 42% | 1021 hPa | 0 mm | - | 734 W/m² | - |
| 1778085916 | 18.89° C | 40% | 1020.7 hPa | 0 mm | - | 707 W/m² | - |
| 1778085317 | 18.33° C | 43% | 1021.2 hPa | 0 mm | - | 678 W/m² | - |
| 1778084717 | 17.78° C | 44% | 1021.2 hPa | 0 mm | - | 652 W/m² | - |
| 1778084117 | 17.22° C | 47% | 1020.9 hPa | 0 mm | - | 624 W/m² | - |
| 1778083517 | 16.67° C | 47% | 1020.5 hPa | 0 mm | - | 593 W/m² | - |
| 1778082917 | 16.11° C | 49% | 1020.6 hPa | 0 mm | - | 561 W/m² | - |
| 1778082317 | 15° C | 53% | 1020.9 hPa | 0 mm | - | 529 W/m² | - |
| 1778081717 | 14.44° C | 55% | 1021.1 hPa | 0 mm | - | 496 W/m² | - |
| 1778081117 | 13.33° C | 57% | 1021.7 hPa | 0 mm | - | 461 W/m² | - |
| 1778080517 | 12.78° C | 58% | 1021.4 hPa | 0 mm | - | 427 W/m² | - |
| 1778079918 | 12.22° C | 62% | 1020.8 hPa | 0 mm | - | 393 W/m² | - |
| 1778079317 | 10.56° C | 72% | 1021.1 hPa | 0 mm | - | 357 W/m² | - |
| 1778078719 | 8.89° C | 76% | 1020.7 hPa | 0 mm | - | 321 W/m² | - |
| 1778078117 | 7.78° C | 78% | 1020.6 hPa | 0 mm | - | 284 W/m² | - |
| 1778077517 | 7.22° C | 79% | 1020.7 hPa | 0 mm | - | 247 W/m² | - |
| 1778076917 | 6.67° C | 80% | 1020.6 hPa | 0 mm | - | 208 W/m² | - |
| 1778076317 | 5.56° C | 83% | 1020.3 hPa | 0 mm | - | 172 W/m² | - |
| 1778075717 | 3.89° C | 84% | 1020.5 hPa | 0 mm | - | 131 W/m² | - |
| 1778075117 | 2.78° C | 84% | 1019.9 hPa | 0 mm | - | 95 W/m² | - |
| 1778074516 | 2.22° C | 84% | 1020.2 hPa | 0 mm | - | 67 W/m² | - |
| 1778073917 | 1.67° C | 84% | 1019.8 hPa | 0 mm | - | 44 W/m² | - |
* Rain latest hour (hover to see other rain measurements)
** Current wind speed in m/s (hover to see current wind gust speed)